Time;durP1;ratioP1;P1;durP2;ratioP2;P2;SDS_P1;SDS_P2;PMS_P1;PMS_P2;Temp;Humidity;BMP_temperature;BMP_pressure;BME280_temperature;BME280_humidity;BME280_pressure;Samples;Min_cycle;Max_cycle;Signal;HPM_P1;HPM_P2
2023/08/08 00:02:03;;;;;;;10.85;3.50;;;;;;;;;;5014122;28;20072;-77
2023/08/08 00:04:29;;;;;;;10.40;3.40;;;;;;;;;;5015018;28;20545;-77
2023/08/08 00:06:54;;;;;;;15.15;3.03;;;;;;;;;;5014929;28;20033;-78
2023/08/08 00:09:19;;;;;;;13.30;2.83;;;;;;;;;;5014057;28;20025;-77
2023/08/08 00:11:44;;;;;;;11.25;2.75;;;;;;;;;;5013548;28;20065;-77
2023/08/08 00:14:10;;;;;;;17.70;3.40;;;;;;;;;;5013772;28;20026;-77
2023/08/08 00:16:35;;;;;;;6.70;2.67;;;;;;;;;;5013929;28;20096;-78
2023/08/08 00:19:00;;;;;;;12.85;2.42;;;;;;;;;;5013858;28;20391;-77
2023/08/08 00:21:26;;;;;;;12.38;2.75;;;;;;;;;;5014541;28;20030;-78
2023/08/08 00:23:51;;;;;;;11.88;3.50;;;;;;;;;;5013377;28;20022;-78
2023/08/08 00:26:17;;;;;;;14.60;3.75;;;;;;;;;;5014489;28;20431;-76
2023/08/08 00:28:42;;;;;;;10.15;2.65;;;;;;;;;;5014492;28;20112;-77
2023/08/08 00:31:07;;;;;;;7.63;2.95;;;;;;;;;;5013925;28;20026;-77
2023/08/08 00:33:33;;;;;;;10.98;2.92;;;;;;;;;;5013543;28;20025;-78
2023/08/08 00:35:58;;;;;;;9.60;2.55;;;;;;;;;;5014058;28;20018;-77
2023/08/08 00:38:23;;;;;;;10.30;2.65;;;;;;;;;;5013167;28;20084;-77
2023/08/08 00:40:48;;;;;;;8.25;2.70;;;;;;;;;;5015213;28;20444;-78
2023/08/08 00:43:14;;;;;;;10.43;2.58;;;;;;;;;;4997206;28;20026;-78
2023/08/08 00:45:41;;;;;;;17.20;3.58;;;;;;;;;;5016226;28;20484;-78
2023/08/08 00:48:07;;;;;;;10.52;2.50;;;;;;;;;;4997154;28;20116;-78
2023/08/08 00:50:36;;;;;;;8.80;2.50;;;;;;;;;;5013663;28;20571;-77
2023/08/08 00:53:02;;;;;;;7.68;3.78;;;;;;;;;;5013088;28;20073;-78
2023/08/08 00:55:27;;;;;;;11.15;3.63;;;;;;;;;;5013160;28;20026;-78
2023/08/08 00:57:53;;;;;;;15.80;5.75;;;;;;;;;;5013328;28;20117;-78
2023/08/08 01:00:18;;;;;;;14.18;2.85;;;;;;;;;;4996710;28;20033;-79
2023/08/08 01:02:43;;;;;;;16.40;3.72;;;;;;;;;;5012687;28;20112;-78
2023/08/08 01:05:09;;;;;;;6.68;3.15;;;;;;;;;;5013163;28;20032;-77
2023/08/08 01:07:44;;;;;;;8.95;3.08;;;;;;;;;;5013545;28;20076;-77
2023/08/08 01:10:15;;;;;;;10.38;2.58;;;;;;;;;;5017345;28;20065;-78
2023/08/08 01:12:45;;;;;;;8.77;2.72;;;;;;;;;;5016649;28;20503;-77
2023/08/08 01:15:11;;;;;;;6.05;2.55;;;;;;;;;;5016913;28;20385;-78
2023/08/08 01:17:37;;;;;;;11.20;2.97;;;;;;;;;;5016633;28;20032;-78
2023/08/08 01:20:04;;;;;;;10.00;2.80;;;;;;;;;;5016980;28;20484;-78
2023/08/08 01:22:56;;;;;;;11.85;3.03;;;;;;;;;;5016399;28;20029;-78
2023/08/08 01:25:22;;;;;;;15.35;3.25;;;;;;;;;;5007357;28;20034;-77
2023/08/08 01:27:47;;;;;;;8.10;2.55;;;;;;;;;;5016303;28;20045;-78
2023/08/08 01:30:13;;;;;;;10.00;3.45;;;;;;;;;;4999629;28;20053;-77
2023/08/08 01:32:38;;;;;;;6.30;2.75;;;;;;;;;;5016723;28;20072;-78
2023/08/08 01:35:07;;;;;;;9.65;2.85;;;;;;;;;;5016942;28;20022;-78
2023/08/08 01:37:36;;;;;;;13.52;3.15;;;;;;;;;;5016212;28;20026;-78
2023/08/08 01:43:24;;;;;;;12.18;2.33;;;;;;;;;;5018361;28;20072;-78
2023/08/08 01:45:50;;;;;;;9.45;3.35;;;;;;;;;;5016553;28;20033;-77
2023/08/08 01:48:15;;;;;;;18.40;4.15;;;;;;;;;;4983732;28;20028;-78
2023/08/08 01:50:41;;;;;;;7.13;2.47;;;;;;;;;;5017669;28;20026;-77
2023/08/08 01:53:06;;;;;;;8.40;2.70;;;;;;;;;;5017942;28;20026;-77
2023/08/08 01:55:31;;;;;;;10.18;2.88;;;;;;;;;;5016946;28;20022;-77
2023/08/08 01:57:57;;;;;;;11.07;2.67;;;;;;;;;;5017167;28;20038;-78
2023/08/08 02:00:22;;;;;;;13.95;2.67;;;;;;;;;;5016205;28;20026;-78
2023/08/08 02:02:47;;;;;;;6.30;2.53;;;;;;;;;;5015925;28;20080;-77
2023/08/08 02:05:13;;;;;;;11.38;3.28;;;;;;;;;;5017435;28;20068;-76
2023/08/08 02:07:38;;;;;;;9.55;2.75;;;;;;;;;;5016966;28;20029;-77
2023/08/08 02:10:04;;;;;;;11.27;3.72;;;;;;;;;;5016374;28;20107;-77
2023/08/08 02:12:30;;;;;;;10.02;2.80;;;;;;;;;;5017696;28;20037;-77
2023/08/08 02:14:58;;;;;;;10.90;2.80;;;;;;;;;;5016306;28;20022;-77
2023/08/08 02:17:24;;;;;;;14.40;2.95;;;;;;;;;;5017809;28;20107;-78
2023/08/08 02:19:50;;;;;;;14.15;2.92;;;;;;;;;;5015487;28;20021;-77
2023/08/08 02:22:15;;;;;;;7.68;2.78;;;;;;;;;;5019358;28;20033;-77
2023/08/08 02:24:40;;;;;;;13.05;2.95;;;;;;;;;;5036424;28;20021;-77
2023/08/08 02:27:06;;;;;;;7.00;2.45;;;;;;;;;;5021314;28;20033;-77
2023/08/08 02:29:31;;;;;;;13.40;3.08;;;;;;;;;;5018011;28;20061;-78
2023/08/08 02:31:56;;;;;;;13.88;2.88;;;;;;;;;;5031391;28;20062;-77
2023/08/08 02:34:22;;;;;;;18.40;3.72;;;;;;;;;;5015465;28;20025;-78
2023/08/08 02:36:47;;;;;;;7.80;2.67;;;;;;;;;;5024468;28;20099;-77
2023/08/08 02:39:13;;;;;;;10.27;2.90;;;;;;;;;;5035882;28;20025;-77
2023/08/08 02:41:38;;;;;;;15.55;2.80;;;;;;;;;;5037221;28;20097;-77
2023/08/08 02:44:03;;;;;;;4.93;2.70;;;;;;;;;;5037124;28;20537;-78
2023/08/08 02:46:29;;;;;;;12.40;3.17;;;;;;;;;;5035268;28;20037;-78
2023/08/08 02:48:54;;;;;;;8.85;4.25;;;;;;;;;;5018791;28;20025;-78
2023/08/08 02:51:19;;;;;;;9.10;2.30;;;;;;;;;;5025691;28;20034;-77
2023/08/08 02:53:44;;;;;;;13.25;3.38;;;;;;;;;;5026464;28;20022;-77
2023/08/08 02:56:10;;;;;;;7.47;2.65;;;;;;;;;;5030704;28;20033;-77
2023/08/08 02:58:35;;;;;;;14.50;3.10;;;;;;;;;;5036166;28;20021;-78
2023/08/08 03:01:00;;;;;;;10.90;3.13;;;;;;;;;;5018553;28;20056;-77
2023/08/08 03:03:28;;;;;;;14.57;3.95;;;;;;;;;;5035122;28;20022;-78
2023/08/08 03:05:54;;;;;;;14.00;3.33;;;;;;;;;;5035527;28;20040;-77
2023/08/08 03:08:19;;;;;;;17.33;4.93;;;;;;;;;;5034263;28;20029;-77
2023/08/08 03:10:44;;;;;;;12.82;3.05;;;;;;;;;;5034722;28;20399;-77
2023/08/08 03:13:09;;;;;;;15.00;3.28;;;;;;;;;;5034852;28;20076;-77
2023/08/08 03:15:35;;;;;;;9.38;3.15;;;;;;;;;;5034514;28;20033;-77
2023/08/08 03:18:01;;;;;;;8.60;2.28;;;;;;;;;;5035401;28;20395;-77
2023/08/08 03:20:28;;;;;;;10.07;2.90;;;;;;;;;;5018042;28;20048;-77
2023/08/08 03:22:53;;;;;;;7.97;2.60;;;;;;;;;;5015047;28;20132;-78
2023/08/08 03:25:19;;;;;;;8.55;4.45;;;;;;;;;;5016051;28;20559;-78
2023/08/08 03:27:44;;;;;;;10.80;3.35;;;;;;;;;;5030521;28;20026;-78
2023/08/08 03:30:10;;;;;;;10.88;3.03;;;;;;;;;;5031433;28;20088;-78
2023/08/08 03:32:35;;;;;;;8.07;2.58;;;;;;;;;;5014173;28;20029;-77
2023/08/08 03:35:00;;;;;;;10.60;2.95;;;;;;;;;;5019603;28;20018;-78
2023/08/08 03:37:26;;;;;;;9.75;3.95;;;;;;;;;;5017645;28;20025;-78
2023/08/08 03:39:51;;;;;;;7.57;2.22;;;;;;;;;;5035192;28;20396;-76
2023/08/08 03:42:16;;;;;;;11.43;2.75;;;;;;;;;;5018607;28;20030;-77
2023/08/08 03:44:42;;;;;;;7.72;3.67;;;;;;;;;;5014814;28;20079;-78
2023/08/08 03:47:07;;;;;;;10.40;2.70;;;;;;;;;;5014351;28;20089;-76
2023/08/08 03:49:32;;;;;;;11.95;3.08;;;;;;;;;;5013282;28;20034;-78
2023/08/08 03:51:58;;;;;;;10.75;2.60;;;;;;;;;;5013989;28;20025;-78
2023/08/08 03:54:23;;;;;;;7.18;2.30;;;;;;;;;;5013796;28;20026;-77
2023/08/08 03:56:48;;;;;;;16.73;4.53;;;;;;;;;;4996797;28;20022;-78
2023/08/08 03:59:13;;;;;;;14.95;3.40;;;;;;;;;;5014028;28;20022;-77
2023/08/08 04:01:39;;;;;;;13.57;3.45;;;;;;;;;;5034649;28;20568;-77
2023/08/08 04:04:05;;;;;;;12.55;3.25;;;;;;;;;;5033169;28;20075;-77
2023/08/08 04:06:30;;;;;;;14.07;3.53;;;;;;;;;;5033638;28;20029;-77
2023/08/08 04:08:55;;;;;;;7.93;3.00;;;;;;;;;;5032687;28;20021;-78
2023/08/08 04:11:21;;;;;;;8.52;3.40;;;;;;;;;;5036455;28;20037;-79
2023/08/08 04:13:46;;;;;;;14.85;3.20;;;;;;;;;;5033455;28;20033;-78
2023/08/08 04:16:11;;;;;;;7.57;2.53;;;;;;;;;;5033726;28;20022;-78
2023/08/08 04:18:37;;;;;;;8.32;2.90;;;;;;;;;;5032812;28;20028;-78
2023/08/08 04:21:02;;;;;;;8.15;2.47;;;;;;;;;;5019781;28;20041;-78
2023/08/08 04:23:27;;;;;;;8.60;2.28;;;;;;;;;;5013643;28;20438;-78
2023/08/08 04:25:53;;;;;;;10.43;3.60;;;;;;;;;;5020064;28;20052;-78
2023/08/08 04:28:19;;;;;;;6.93;2.55;;;;;;;;;;5033153;28;20032;-78
2023/08/08 04:30:44;;;;;;;8.73;2.50;;;;;;;;;;5045760;23;20045;-73
2023/08/08 04:33:09;;;;;;;9.52;3.03;;;;;;;;;;5032642;28;20021;-74
2023/08/08 04:35:35;;;;;;;11.57;3.03;;;;;;;;;;5027866;28;20112;-74
2023/08/08 04:38:00;;;;;;;9.63;2.92;;;;;;;;;;5013256;28;20030;-74
2023/08/08 04:40:25;;;;;;;9.48;2.67;;;;;;;;;;5012791;28;20395;-74
2023/08/08 04:42:51;;;;;;;9.77;3.25;;;;;;;;;;5012539;28;20022;-74
2023/08/08 04:45:16;;;;;;;10.32;2.70;;;;;;;;;;4996158;28;20113;-74
2023/08/08 04:47:42;;;;;;;10.93;3.30;;;;;;;;;;5006287;28;20018;-74
2023/08/08 04:50:07;;;;;;;7.78;3.47;;;;;;;;;;5017072;28;20061;-74
2023/08/08 04:52:32;;;;;;;6.93;3.28;;;;;;;;;;5015465;28;20018;-74
2023/08/08 04:54:58;;;;;;;19.45;3.25;;;;;;;;;;5017510;28;20104;-74
2023/08/08 04:57:23;;;;;;;18.05;4.28;;;;;;;;;;4998578;28;20026;-74
2023/08/08 04:59:49;;;;;;;5.85;3.00;;;;;;;;;;5033680;28;20033;-74
2023/08/08 05:02:14;;;;;;;15.60;4.18;;;;;;;;;;5019933;28;20116;-74
2023/08/08 05:04:39;;;;;;;18.23;3.35;;;;;;;;;;5016548;28;20026;-74
2023/08/08 05:07:05;;;;;;;10.77;3.85;;;;;;;;;;5001476;28;20114;-74
2023/08/08 05:09:31;;;;;;;10.70;3.60;;;;;;;;;;4996507;28;20179;-74
2023/08/08 05:11:56;;;;;;;12.40;3.15;;;;;;;;;;5015940;28;20021;-74
2023/08/08 05:14:21;;;;;;;10.15;3.65;;;;;;;;;;5034933;28;20022;-74
2023/08/08 05:16:47;;;;;;;14.60;3.60;;;;;;;;;;5036207;28;20021;-74
2023/08/08 05:19:12;;;;;;;11.05;4.28;;;;;;;;;;5035205;28;20547;-74
2023/08/08 05:21:37;;;;;;;10.10;2.63;;;;;;;;;;5031430;28;20042;-74
2023/08/08 05:24:03;;;;;;;10.90;2.78;;;;;;;;;;5016115;28;20029;-74
2023/08/08 05:26:28;;;;;;;9.32;2.78;;;;;;;;;;5014845;28;20033;-74
2023/08/08 05:28:54;;;;;;;7.63;2.83;;;;;;;;;;5035542;28;20025;-73
2023/08/08 05:31:19;;;;;;;12.00;3.47;;;;;;;;;;5035863;28;20122;-74
2023/08/08 05:33:44;;;;;;;8.40;2.88;;;;;;;;;;5024624;28;20033;-74
2023/08/08 05:36:10;;;;;;;25.25;6.20;;;;;;;;;;5016137;28;20495;-74
2023/08/08 05:38:36;;;;;;;12.23;2.85;;;;;;;;;;5014384;28;20026;-74
2023/08/08 05:41:01;;;;;;;9.38;2.15;;;;;;;;;;5014694;28;20502;-74
2023/08/08 05:43:27;;;;;;;6.93;2.30;;;;;;;;;;5015438;28;20061;-74
2023/08/08 05:45:53;;;;;;;8.85;2.50;;;;;;;;;;5034921;28;20021;-74
2023/08/08 05:48:18;;;;;;;9.40;1.90;;;;;;;;;;5035487;28;20407;-73
2023/08/08 05:50:43;;;;;;;6.93;2.72;;;;;;;;;;5021496;28;20022;-73
2023/08/08 05:53:08;;;;;;;6.00;2.42;;;;;;;;;;5015236;28;20034;-74
2023/08/08 05:55:34;;;;;;;7.88;3.53;;;;;;;;;;5015723;28;20088;-73
2023/08/08 05:57:59;;;;;;;3.42;2.17;;;;;;;;;;5015771;28;20054;-74
2023/08/08 06:00:24;;;;;;;6.55;2.40;;;;;;;;;;5023944;28;20027;-74
2023/08/08 06:02:50;;;;;;;7.18;2.60;;;;;;;;;;5035463;28;20033;-74
2023/08/08 06:05:16;;;;;;;10.15;3.00;;;;;;;;;;5028145;28;20026;-74
2023/08/08 06:07:42;;;;;;;7.63;4.47;;;;;;;;;;5017312;28;20488;-73
2023/08/08 06:10:08;;;;;;;9.82;2.65;;;;;;;;;;5015210;28;20087;-73
2023/08/08 06:12:33;;;;;;;9.38;2.97;;;;;;;;;;5029209;28;20079;-74
2023/08/08 06:14:58;;;;;;;11.43;2.67;;;;;;;;;;5034684;28;20049;-75
2023/08/08 06:17:24;;;;;;;8.05;2.42;;;;;;;;;;5033312;28;20367;-76
2023/08/08 06:19:50;;;;;;;14.18;2.80;;;;;;;;;;5035534;28;20061;-75
2023/08/08 06:22:15;;;;;;;7.57;3.05;;;;;;;;;;5035191;28;20056;-75
2023/08/08 06:24:41;;;;;;;11.15;2.78;;;;;;;;;;5033752;28;20060;-75
2023/08/08 06:27:06;;;;;;;12.32;3.00;;;;;;;;;;5035385;28;20029;-75
2023/08/08 06:29:34;;;;;;;11.80;2.50;;;;;;;;;;5035298;28;20459;-75
2023/08/08 06:32:00;;;;;;;9.43;3.30;;;;;;;;;;5035451;28;20384;-74
2023/08/08 06:34:25;;;;;;;14.15;3.83;;;;;;;;;;5035210;28;20044;-74
2023/08/08 06:36:50;;;;;;;8.82;2.75;;;;;;;;;;5034571;28;20032;-74
2023/08/08 06:39:16;;;;;;;11.95;2.80;;;;;;;;;;5035179;28;20469;-74
2023/08/08 06:41:41;;;;;;;12.95;3.80;;;;;;;;;;5033844;28;20036;-74
2023/08/08 06:44:07;;;;;;;6.40;2.80;;;;;;;;;;5033815;28;20021;-75
2023/08/08 06:46:32;;;;;;;7.22;2.92;;;;;;;;;;5033244;28;20025;-73
2023/08/08 06:48:59;;;;;;;15.52;4.38;;;;;;;;;;5034953;28;20021;-74
2023/08/08 06:51:25;;;;;;;12.57;2.88;;;;;;;;;;5033461;28;20017;-73
2023/08/08 06:53:51;;;;;;;7.38;2.55;;;;;;;;;;5033649;28;20029;-74
2023/08/08 06:56:16;;;;;;;6.55;2.75;;;;;;;;;;5033755;28;20021;-73
2023/08/08 06:58:41;;;;;;;9.15;2.90;;;;;;;;;;5034483;28;20028;-73
2023/08/08 07:01:06;;;;;;;4.95;2.80;;;;;;;;;;5034827;28;20037;-74
2023/08/08 07:03:32;;;;;;;11.50;2.72;;;;;;;;;;5033409;28;20033;-74
2023/08/08 07:05:57;;;;;;;13.68;2.80;;;;;;;;;;5032879;28;20075;-74
2023/08/08 07:08:23;;;;;;;7.80;2.33;;;;;;;;;;5034369;28;20448;-74
2023/08/08 07:10:49;;;;;;;10.38;2.38;;;;;;;;;;5034440;28;20395;-72
2023/08/08 07:13:15;;;;;;;6.78;2.80;;;;;;;;;;5033926;28;20033;-73
2023/08/08 07:15:40;;;;;;;11.27;3.08;;;;;;;;;;5034488;28;20561;-74
2023/08/08 07:18:06;;;;;;;10.05;2.70;;;;;;;;;;5033182;28;20025;-73
2023/08/08 07:20:31;;;;;;;6.53;2.45;;;;;;;;;;5034417;28;20025;-74
2023/08/08 07:22:56;;;;;;;8.48;3.50;;;;;;;;;;5032956;28;20021;-74
2023/08/08 07:25:22;;;;;;;5.60;2.67;;;;;;;;;;5032490;28;20033;-73
2023/08/08 07:27:47;;;;;;;11.00;2.95;;;;;;;;;;5034265;28;20415;-73
2023/08/08 07:30:13;;;;;;;9.63;3.17;;;;;;;;;;5034451;28;20090;-74
2023/08/08 07:32:38;;;;;;;10.45;2.80;;;;;;;;;;5032737;28;20024;-73
2023/08/08 07:35:05;;;;;;;4.40;2.63;;;;;;;;;;5034004;28;20028;-73
2023/08/08 07:37:31;;;;;;;9.80;2.75;;;;;;;;;;5015869;28;20040;-73
2023/08/08 07:39:57;;;;;;;8.15;3.05;;;;;;;;;;5032632;28;20068;-73
2023/08/08 07:42:22;;;;;;;10.30;2.30;;;;;;;;;;5034086;28;20025;-73
2023/08/08 07:44:47;;;;;;;8.20;2.70;;;;;;;;;;5033659;28;20022;-73
2023/08/08 07:47:12;;;;;;;9.18;2.70;;;;;;;;;;5033452;28;20026;-73
2023/08/08 07:49:38;;;;;;;12.48;2.75;;;;;;;;;;5033660;28;20105;-73
2023/08/08 07:52:03;;;;;;;10.85;2.58;;;;;;;;;;5033582;28;20025;-73
2023/08/08 07:54:29;;;;;;;6.90;2.33;;;;;;;;;;5033803;28;20021;-73
2023/08/08 07:56:54;;;;;;;6.20;1.85;;;;;;;;;;5033557;28;20426;-73
2023/08/08 07:59:19;;;;;;;7.20;2.65;;;;;;;;;;5033547;28;20079;-74
2023/08/08 08:01:45;;;;;;;6.18;2.83;;;;;;;;;;5032881;28;20108;-74
2023/08/08 08:04:10;;;;;;;7.63;2.63;;;;;;;;;;5032069;28;20480;-74
2023/08/08 08:06:35;;;;;;;7.95;2.28;;;;;;;;;;5033425;28;20032;-74
2023/08/08 08:09:01;;;;;;;5.47;2.42;;;;;;;;;;5032937;28;20036;-74
2023/08/08 08:11:26;;;;;;;16.65;3.13;;;;;;;;;;5033355;28;20102;-74
2023/08/08 08:13:51;;;;;;;11.88;3.10;;;;;;;;;;5033312;28;20014;-74
2023/08/08 08:16:17;;;;;;;8.02;2.25;;;;;;;;;;5032138;28;20452;-74
2023/08/08 08:18:42;;;;;;;5.13;2.00;;;;;;;;;;5031926;28;20442;-74
2023/08/08 08:21:07;;;;;;;5.47;3.17;;;;;;;;;;5031832;28;20029;-75
2023/08/08 08:23:33;;;;;;;5.65;2.20;;;;;;;;;;5033372;28;20025;-74
2023/08/08 08:25:58;;;;;;;11.68;2.70;;;;;;;;;;5033059;28;20033;-74
2023/08/08 08:28:25;;;;;;;8.07;1.85;;;;;;;;;;5031890;28;20430;-74
2023/08/08 08:30:50;;;;;;;13.32;2.38;;;;;;;;;;5031284;28;20084;-74
2023/08/08 08:33:15;;;;;;;9.13;1.98;;;;;;;;;;5032333;28;20053;-74
2023/08/08 08:35:41;;;;;;;4.55;1.70;;;;;;;;;;5031774;28;20502;-74
2023/08/08 08:38:07;;;;;;;9.20;2.42;;;;;;;;;;5032887;28;20491;-73
2023/08/08 08:40:37;;;;;;;4.90;1.90;;;;;;;;;;5015092;28;20087;-73
2023/08/08 08:43:04;;;;;;;4.72;2.08;;;;;;;;;;5031413;28;20029;-73
2023/08/08 08:45:30;;;;;;;6.20;2.30;;;;;;;;;;5031662;28;20034;-74
2023/08/08 08:47:57;;;;;;;7.10;2.53;;;;;;;;;;5031560;28;20017;-74
2023/08/08 08:50:23;;;;;;;5.90;2.03;;;;;;;;;;5031636;28;20033;-73
2023/08/08 08:52:49;;;;;;;7.43;2.45;;;;;;;;;;5031663;28;20029;-73
2023/08/08 08:55:14;;;;;;;5.40;3.05;;;;;;;;;;5031128;28;20087;-74
2023/08/08 08:57:39;;;;;;;7.47;1.95;;;;;;;;;;5032513;28;20029;-74
2023/08/08 09:00:06;;;;;;;8.88;2.65;;;;;;;;;;5031825;28;20021;-74
2023/08/08 09:02:31;;;;;;;6.72;2.08;;;;;;;;;;5031007;28;20036;-73
2023/08/08 09:04:57;;;;;;;7.18;2.30;;;;;;;;;;5031572;28;20025;-74
2023/08/08 09:07:27;;;;;;;11.27;2.95;;;;;;;;;;5015023;28;20022;-75
2023/08/08 09:09:52;;;;;;;9.48;2.65;;;;;;;;;;5031866;28;20033;-74
2023/08/08 09:12:18;;;;;;;8.13;3.15;;;;;;;;;;5032647;28;20029;-73
2023/08/08 09:14:43;;;;;;;8.25;2.95;;;;;;;;;;5031505;28;20082;-74
2023/08/08 09:17:13;;;;;;;6.68;3.17;;;;;;;;;;5030820;28;20088;-73
2023/08/08 09:19:39;;;;;;;9.75;2.92;;;;;;;;;;5031694;28;20021;-73
2023/08/08 09:22:04;;;;;;;8.20;2.88;;;;;;;;;;5029710;28;20025;-73
2023/08/08 09:24:29;;;;;;;10.13;2.75;;;;;;;;;;5017196;28;20034;-73
2023/08/08 09:26:58;;;;;;;9.63;2.65;;;;;;;;;;4991662;28;20034;-73
2023/08/08 09:29:23;;;;;;;7.43;2.13;;;;;;;;;;5007023;28;20022;-75
2023/08/08 09:31:49;;;;;;;5.13;2.50;;;;;;;;;;5014682;28;20018;-75
2023/08/08 09:34:14;;;;;;;7.32;2.22;;;;;;;;;;4995584;28;20049;-74
2023/08/08 09:36:40;;;;;;;7.60;2.22;;;;;;;;;;4999466;28;20065;-74
2023/08/08 09:39:05;;;;;;;4.88;2.38;;;;;;;;;;5018438;28;20029;-74
2023/08/08 09:41:31;;;;;;;3.08;1.42;;;;;;;;;;5034916;28;20454;-74
2023/08/08 09:43:59;;;;;;;7.07;2.80;;;;;;;;;;5012471;28;20081;-73
2023/08/08 09:46:24;;;;;;;5.25;2.70;;;;;;;;;;4998735;28;20026;-74
2023/08/08 09:48:50;;;;;;;8.75;1.67;;;;;;;;;;5016178;28;20449;-74
2023/08/08 09:51:15;;;;;;;8.13;2.35;;;;;;;;;;5014642;28;20028;-74
2023/08/08 09:53:42;;;;;;;8.95;2.15;;;;;;;;;;5014665;28;20388;-74
2023/08/08 09:56:08;;;;;;;4.13;2.40;;;;;;;;;;5034513;28;20502;-74
2023/08/08 09:58:33;;;;;;;7.65;2.35;;;;;;;;;;5034858;28;20029;-74
2023/08/08 10:00:59;;;;;;;4.10;1.70;;;;;;;;;;5019487;28;20029;-74
2023/08/08 10:03:26;;;;;;;5.85;1.60;;;;;;;;;;5014702;28;20107;-73
2023/08/08 10:05:52;;;;;;;5.65;2.55;;;;;;;;;;5014222;28;20022;-73
2023/08/08 10:08:18;;;;;;;3.80;2.58;;;;;;;;;;5014170;28;20464;-74
2023/08/08 10:10:48;;;;;;;5.95;1.67;;;;;;;;;;5015777;28;20557;-73
2023/08/08 10:13:21;;;;;;;8.27;2.10;;;;;;;;;;5014180;28;20025;-73
2023/08/08 10:15:46;;;;;;;7.15;2.25;;;;;;;;;;5014059;28;20026;-73
2023/08/08 10:18:14;;;;;;;11.07;3.90;;;;;;;;;;5014223;28;20022;-73
2023/08/08 10:20:42;;;;;;;8.73;2.47;;;;;;;;;;5008896;28;20026;-74
2023/08/08 10:23:07;;;;;;;12.82;3.38;;;;;;;;;;5009470;28;20026;-73
2023/08/08 10:25:33;;;;;;;5.70;2.92;;;;;;;;;;5009533;28;20033;-74
2023/08/08 10:28:05;;;;;;;7.35;3.17;;;;;;;;;;5005472;28;20029;-77
2023/08/08 10:30:44;;;;;;;9.93;3.25;;;;;;;;;;5029290;23;20032;-78
2023/08/08 10:33:42;;;;;;;7.57;2.70;;;;;;;;;;4995343;28;20129;-79
2023/08/08 10:36:08;;;;;;;10.20;2.80;;;;;;;;;;5001498;28;20483;-80
2023/08/08 10:38:49;;;;;;;9.90;3.17;;;;;;;;;;5006531;28;20032;-77
2023/08/08 10:41:16;;;;;;;4.13;2.17;;;;;;;;;;4971101;28;20106;-78
2023/08/08 10:43:57;;;;;;;4.93;2.45;;;;;;;;;;4956222;28;20448;-78
2023/08/08 10:46:31;;;;;;;9.77;2.70;;;;;;;;;;4976561;28;20039;-78
2023/08/08 10:49:05;;;;;;;12.90;2.95;;;;;;;;;;4971607;28;20037;-78
2023/08/08 10:51:35;;;;;;;6.88;2.60;;;;;;;;;;4969761;28;20139;-78
2023/08/08 10:54:04;;;;;;;7.72;2.40;;;;;;;;;;4975766;28;20026;-77
2023/08/08 10:56:30;;;;;;;7.50;2.72;;;;;;;;;;4956115;28;20030;-78
2023/08/08 10:58:55;;;;;;;9.57;3.33;;;;;;;;;;4989358;28;20037;-78
2023/08/08 11:01:24;;;;;;;7.93;2.42;;;;;;;;;;4976986;28;20101;-78
2023/08/08 11:03:50;;;;;;;8.27;2.95;;;;;;;;;;4988350;28;20057;-80
2023/08/08 11:06:16;;;;;;;12.07;2.42;;;;;;;;;;4962855;28;20027;-77
2023/08/08 11:08:41;;;;;;;6.07;3.42;;;;;;;;;;4994674;28;20396;-79
2023/08/08 11:11:06;;;;;;;4.85;2.15;;;;;;;;;;4994217;28;20030;-77
2023/08/08 11:13:32;;;;;;;11.57;2.90;;;;;;;;;;4996858;28;20101;-78
2023/08/08 11:15:58;;;;;;;4.90;2.58;;;;;;;;;;4975402;28;20030;-78
2023/08/08 11:18:23;;;;;;;7.13;2.53;;;;;;;;;;4970247;28;20057;-78
2023/08/08 11:20:49;;;;;;;5.07;1.98;;;;;;;;;;4996173;28;20447;-78
2023/08/08 11:23:15;;;;;;;9.80;2.20;;;;;;;;;;4995699;28;20109;-78
2023/08/08 11:25:42;;;;;;;10.07;2.33;;;;;;;;;;4977388;28;20022;-78
2023/08/08 11:28:08;;;;;;;3.00;2.22;;;;;;;;;;4993894;28;20093;-77
2023/08/08 11:30:37;;;;;;;8.60;2.20;;;;;;;;;;4993950;28;20029;-78
2023/08/08 11:33:03;;;;;;;10.60;2.25;;;;;;;;;;4977394;28;20022;-78
2023/08/08 11:35:28;;;;;;;5.57;2.05;;;;;;;;;;4994897;28;20029;-78
2023/08/08 11:37:57;;;;;;;9.88;2.22;;;;;;;;;;4978337;28;20030;-77
2023/08/08 11:40:26;;;;;;;9.77;2.67;;;;;;;;;;4974278;28;20026;-77
2023/08/08 11:42:52;;;;;;;9.48;2.30;;;;;;;;;;4970941;28;20550;-78
2023/08/08 11:45:18;;;;;;;11.38;2.00;;;;;;;;;;4978801;28;20117;-78
2023/08/08 11:47:44;;;;;;;3.47;1.90;;;;;;;;;;4958909;28;20030;-77
2023/08/08 11:50:10;;;;;;;5.45;2.20;;;;;;;;;;4969324;28;20411;-78
2023/08/08 11:52:40;;;;;;;5.82;1.88;;;;;;;;;;4993488;28;20030;-78
2023/08/08 11:55:07;;;;;;;5.65;1.92;;;;;;;;;;4977521;28;20539;-77
2023/08/08 11:57:33;;;;;;;4.93;1.80;;;;;;;;;;4973978;28;20022;-77
2023/08/08 11:59:59;;;;;;;3.97;1.15;;;;;;;;;;4985102;28;20423;-77
2023/08/08 12:02:25;;;;;;;4.63;1.95;;;;;;;;;;4977135;28;20080;-77
2023/08/08 12:04:50;;;;;;;4.07;1.70;;;;;;;;;;4992416;28;20591;-78
2023/08/08 12:07:17;;;;;;;11.70;2.25;;;;;;;;;;4976137;28;20031;-78
2023/08/08 12:09:42;;;;;;;4.53;2.15;;;;;;;;;;4960389;28;20077;-77
2023/08/08 12:12:08;;;;;;;5.32;1.83;;;;;;;;;;4992470;28;20038;-77
2023/08/08 12:14:44;;;;;;;10.50;2.83;;;;;;;;;;4993695;28;20021;-77
2023/08/08 12:17:09;;;;;;;8.13;1.92;;;;;;;;;;4993011;28;20022;-78
2023/08/08 12:19:35;;;;;;;5.55;2.22;;;;;;;;;;4993869;28;20072;-77
2023/08/08 12:22:00;;;;;;;9.82;1.90;;;;;;;;;;4994195;28;20487;-77
2023/08/08 12:24:25;;;;;;;11.30;2.80;;;;;;;;;;4992735;28;20065;-78
2023/08/08 12:26:51;;;;;;;9.13;2.33;;;;;;;;;;4992223;28;20030;-78
2023/08/08 12:29:16;;;;;;;8.38;2.15;;;;;;;;;;4976548;28;20030;-78
2023/08/08 12:31:41;;;;;;;7.68;2.08;;;;;;;;;;4993022;28;20443;-77
2023/08/08 12:34:07;;;;;;;10.88;3.13;;;;;;;;;;4977609;28;20462;-78
2023/08/08 12:36:32;;;;;;;10.65;2.78;;;;;;;;;;4995479;28;20022;-78
2023/08/08 12:38:57;;;;;;;8.95;1.92;;;;;;;;;;4976816;28;20033;-77
2023/08/08 12:41:24;;;;;;;7.72;2.08;;;;;;;;;;4992612;28;20511;-77
2023/08/08 12:43:50;;;;;;;10.38;2.00;;;;;;;;;;4993697;28;20023;-77
2023/08/08 12:46:16;;;;;;;5.15;1.92;;;;;;;;;;4959939;28;20049;-76
2023/08/08 12:48:41;;;;;;;10.27;2.05;;;;;;;;;;4994202;28;20027;-78
2023/08/08 12:51:08;;;;;;;4.63;2.55;;;;;;;;;;4994365;28;20026;-78
2023/08/08 12:53:34;;;;;;;9.20;2.33;;;;;;;;;;4978812;28;20033;-77
2023/08/08 12:55:59;;;;;;;4.43;2.10;;;;;;;;;;4993857;28;20030;-77
2023/08/08 12:58:25;;;;;;;5.65;1.63;;;;;;;;;;4992202;28;20377;-78
2023/08/08 13:00:50;;;;;;;6.00;2.00;;;;;;;;;;4976662;28;20026;-78
2023/08/08 13:03:15;;;;;;;9.55;2.83;;;;;;;;;;4960822;28;20037;-77
2023/08/08 13:05:41;;;;;;;4.45;2.00;;;;;;;;;;4963092;28;20030;-77
2023/08/08 13:08:06;;;;;;;10.77;2.45;;;;;;;;;;4979511;28;20376;-77
2023/08/08 13:10:33;;;;;;;5.35;1.85;;;;;;;;;;4996322;28;20026;-77
2023/08/08 13:12:59;;;;;;;9.43;2.20;;;;;;;;;;4997225;28;20088;-77
2023/08/08 13:15:24;;;;;;;8.02;1.90;;;;;;;;;;4997164;28;20105;-77
2023/08/08 13:17:49;;;;;;;7.45;2.22;;;;;;;;;;4998805;28;20018;-78
2023/08/08 13:20:15;;;;;;;4.47;1.42;;;;;;;;;;5000195;28;20439;-78
2023/08/08 13:22:42;;;;;;;5.97;1.77;;;;;;;;;;5000039;28;20034;-78
2023/08/08 13:25:08;;;;;;;7.43;2.03;;;;;;;;;;4983038;28;20033;-78
2023/08/08 13:27:33;;;;;;;6.22;2.58;;;;;;;;;;4982407;28;20030;-78
2023/08/08 13:29:58;;;;;;;5.93;2.40;;;;;;;;;;4999084;28;20029;-78
2023/08/08 13:32:23;;;;;;;3.75;1.50;;;;;;;;;;5000111;28;20572;-78
2023/08/08 13:34:49;;;;;;;3.83;1.83;;;;;;;;;;4982680;28;20023;-78
2023/08/08 13:37:15;;;;;;;8.57;1.80;;;;;;;;;;5001962;28;20030;-78
2023/08/08 13:39:41;;;;;;;5.68;1.52;;;;;;;;;;4981038;28;20022;-78
2023/08/08 13:42:08;;;;;;;6.55;1.80;;;;;;;;;;4981365;28;20038;-77
2023/08/08 13:44:34;;;;;;;11.13;2.15;;;;;;;;;;4980397;28;20053;-77
2023/08/08 13:46:59;;;;;;;6.68;2.63;;;;;;;;;;4995560;28;20034;-77
2023/08/08 13:49:26;;;;;;;14.15;2.80;;;;;;;;;;4996538;28;20060;-77
2023/08/08 13:51:53;;;;;;;8.77;2.35;;;;;;;;;;4996416;28;20083;-77
2023/08/08 13:54:18;;;;;;;7.88;2.63;;;;;;;;;;4996737;28;20018;-77
2023/08/08 13:56:46;;;;;;;8.70;2.17;;;;;;;;;;4994656;28;20025;-77
2023/08/08 13:59:12;;;;;;;14.48;2.53;;;;;;;;;;4979369;28;20033;-77
2023/08/08 14:01:37;;;;;;;6.22;2.05;;;;;;;;;;4994673;28;20026;-77
2023/08/08 14:04:03;;;;;;;6.70;1.90;;;;;;;;;;4996199;28;20037;-77
2023/08/08 14:06:28;;;;;;;9.88;2.35;;;;;;;;;;4994850;28;20026;-77
2023/08/08 14:08:54;;;;;;;11.85;2.53;;;;;;;;;;4995017;28;20145;-77
2023/08/08 14:11:19;;;;;;;9.40;2.65;;;;;;;;;;4962091;28;20093;-77
2023/08/08 14:13:45;;;;;;;7.30;2.28;;;;;;;;;;4978092;28;20941;-77
2023/08/08 14:16:10;;;;;;;11.57;2.20;;;;;;;;;;4977937;28;20076;-77
2023/08/08 14:18:35;;;;;;;10.35;2.65;;;;;;;;;;4994752;28;20114;-77
2023/08/08 14:21:02;;;;;;;8.02;2.05;;;;;;;;;;4995441;28;20089;-77
2023/08/08 14:23:28;;;;;;;10.85;2.28;;;;;;;;;;4994005;28;20069;-77
2023/08/08 14:25:53;;;;;;;13.80;2.30;;;;;;;;;;4994876;28;20062;-77
2023/08/08 14:28:19;;;;;;;12.73;2.47;;;;;;;;;;4994398;28;20042;-77
2023/08/08 14:30:44;;;;;;;13.68;2.90;;;;;;;;;;4995697;28;20029;-77
2023/08/08 14:33:10;;;;;;;5.88;1.58;;;;;;;;;;4995510;28;20466;-77
2023/08/08 14:35:35;;;;;;;9.55;1.92;;;;;;;;;;4978937;28;20031;-77